createdAt,value
2022-11-28T00:01:22.853Z,13.38
2022-11-28T00:03:49.615Z,11.48
2022-11-28T00:06:16.659Z,13.53
2022-11-28T00:08:43.904Z,13.93
2022-11-28T00:11:13.912Z,11.77
2022-11-28T00:13:40.834Z,14.23
2022-11-28T00:16:09.303Z,14.95
2022-11-28T00:18:36.107Z,15.03
2022-11-28T00:21:05.966Z,9.95
2022-11-28T00:23:33.249Z,11.63
2022-11-28T00:26:02.850Z,13.75
2022-11-28T00:28:29.437Z,15.85
2022-11-28T00:30:56.015Z,15.83
2022-11-28T00:33:22.989Z,14.30
2022-11-28T00:35:49.664Z,16.48
2022-11-28T00:38:16.524Z,10.77
2022-11-28T00:40:43.091Z,11.63
2022-11-28T00:43:11.630Z,14.40
2022-11-28T00:45:38.190Z,12.98
2022-11-28T00:48:05.259Z,11.88
2022-11-28T00:50:31.763Z,11.73
2022-11-28T00:53:00.596Z,10.18
2022-11-28T00:55:27.462Z,11.13
2022-11-28T00:57:55.741Z,10.25
2022-11-28T01:00:23.922Z,10.00
2022-11-28T01:02:50.824Z,10.60
2022-11-28T01:05:17.576Z,7.88
2022-11-28T01:07:44.127Z,7.73
2022-11-28T01:10:11.825Z,10.55
2022-11-28T01:12:38.740Z,9.00
2022-11-28T01:15:08.317Z,8.13
2022-11-28T01:17:35.716Z,10.85
2022-11-28T01:20:08.112Z,8.77
2022-11-28T01:22:34.698Z,9.57
2022-11-28T01:25:01.217Z,7.47
2022-11-28T01:27:27.721Z,10.30
2022-11-28T01:29:54.249Z,12.00
2022-11-28T01:32:20.746Z,9.70
2022-11-28T01:34:47.347Z,14.43
2022-11-28T01:37:13.865Z,13.05
2022-11-28T01:39:40.561Z,10.23
2022-11-28T01:42:07.114Z,12.70
2022-11-28T01:44:33.545Z,10.20
2022-11-28T01:47:00.171Z,9.40
2022-11-28T01:49:31.617Z,10.57
2022-11-28T01:52:05.680Z,10.70
2022-11-28T01:54:35.126Z,13.02
2022-11-28T01:57:04.768Z,11.77
2022-11-28T01:59:37.107Z,10.95
2022-11-28T02:02:09.754Z,8.90
2022-11-28T02:04:37.447Z,11.35
2022-11-28T02:07:04.157Z,9.67
2022-11-28T02:09:30.724Z,10.25
2022-11-28T02:12:26.307Z,13.07
2022-11-28T02:14:58.891Z,11.07
2022-11-28T02:18:18.589Z,14.65
2022-11-28T02:21:14.155Z,12.27
2022-11-28T02:24:05.572Z,12.07
2022-11-28T02:26:34.938Z,11.68
2022-11-28T02:29:25.730Z,13.18
2022-11-28T02:32:25.077Z,13.70
2022-11-28T02:35:03.667Z,13.37
2022-11-28T02:37:41.667Z,13.13
2022-11-28T02:40:23.138Z,12.43
2022-11-28T02:43:20.476Z,15.20
2022-11-28T02:46:22.893Z,18.23
2022-11-28T02:48:55.545Z,12.97
2022-11-28T02:51:33.423Z,13.85
2022-11-28T02:54:03.694Z,12.57
2022-11-28T02:56:30.480Z,10.15
2022-11-28T02:58:57.153Z,10.50
2022-11-28T03:01:31.433Z,13.30
2022-11-28T03:04:12.488Z,14.32
2022-11-28T03:07:04.941Z,13.75
2022-11-28T03:10:12.704Z,13.85
2022-11-28T03:13:09.736Z,14.15
2022-11-28T03:15:50.346Z,13.63
2022-11-28T03:18:34.456Z,16.73
2022-11-28T03:21:12.844Z,12.38
2022-11-28T03:23:52.187Z,13.98
2022-11-28T03:26:37.094Z,14.05
2022-11-28T03:29:13.584Z,11.43
2022-11-28T03:31:45.139Z,15.18
2022-11-28T03:34:17.537Z,18.10
2022-11-28T03:36:55.147Z,16.75
2022-11-28T03:39:29.208Z,14.05
2022-11-28T03:42:08.918Z,15.57
2022-11-28T03:44:45.639Z,15.05
2022-11-28T03:47:12.522Z,18.27
2022-11-28T03:49:48.659Z,17.00
2022-11-28T03:52:22.178Z,17.33
2022-11-28T03:54:55.549Z,21.50
2022-11-28T03:57:34.423Z,18.13
2022-11-28T04:00:12.973Z,20.27
2022-11-28T04:02:45.308Z,18.05
2022-11-28T04:05:41.380Z,25.23
2022-11-28T04:08:29.730Z,22.53
2022-11-28T04:11:07.343Z,21.70
2022-11-28T04:13:45.825Z,24.88
2022-11-28T04:16:34.172Z,19.65
2022-11-28T04:19:18.886Z,29.83
2022-11-28T04:21:55.402Z,28.47
2022-11-28T04:24:28.533Z,33.33
2022-11-28T04:27:00.527Z,31.17
2022-11-28T04:29:31.973Z,20.58
2022-11-28T04:32:01.231Z,25.88
2022-11-28T04:34:30.776Z,33.43
2022-11-28T04:36:59.430Z,35.88
2022-11-28T04:39:27.574Z,32.53
2022-11-28T04:41:56.517Z,35.78
2022-11-28T04:44:40.108Z,31.58
2022-11-28T04:47:07.579Z,36.20
2022-11-28T04:49:34.225Z,37.55
2022-11-28T04:52:29.582Z,34.38
2022-11-28T04:55:02.238Z,30.10
2022-11-28T04:57:32.805Z,40.22
2022-11-28T05:00:02.769Z,40.17
2022-11-28T05:02:30.195Z,43.25
2022-11-28T05:04:56.840Z,41.72
2022-11-28T05:07:24.901Z,46.83
2022-11-28T05:09:51.766Z,46.20
2022-11-28T05:12:18.511Z,43.40
2022-11-28T05:14:45.126Z,48.83
2022-11-28T05:17:13.620Z,39.60
2022-11-28T05:19:40.209Z,44.45
2022-11-28T05:22:06.826Z,37.38
2022-11-28T05:24:33.319Z,43.20
2022-11-28T05:26:59.859Z,43.28
2022-11-28T05:29:26.387Z,32.50
2022-11-28T05:31:52.988Z,34.10
2022-11-28T05:34:19.638Z,42.97
2022-11-28T05:36:46.168Z,43.73
2022-11-28T05:39:12.700Z,45.50
2022-11-28T05:41:39.247Z,42.33
2022-11-28T05:44:05.867Z,33.92
2022-11-28T05:46:32.423Z,40.47
2022-11-28T05:48:59.305Z,21.37
2022-11-28T05:51:25.811Z,36.30
2022-11-28T05:53:52.331Z,35.47
2022-11-28T05:56:22.931Z,34.88
2022-11-28T05:58:49.744Z,36.83
2022-11-28T06:01:25.582Z,33.17
2022-11-28T06:03:58.310Z,30.95
2022-11-28T06:06:26.451Z,38.13
2022-11-28T06:08:53.112Z,41.42
2022-11-28T06:11:22.241Z,42.97
2022-11-28T06:13:50.128Z,43.70
2022-11-28T06:16:19.426Z,41.70
2022-11-28T06:18:46.371Z,40.28
2022-11-28T06:21:14.723Z,42.25
2022-11-28T06:23:41.561Z,42.53
2022-11-28T06:26:10.837Z,40.33
2022-11-28T06:28:37.383Z,36.88
2022-11-28T06:31:04.103Z,41.20
2022-11-28T06:33:30.653Z,44.92
2022-11-28T06:36:04.152Z,35.50
2022-11-28T06:38:31.553Z,45.93
2022-11-28T06:40:59.356Z,43.40
2022-11-28T06:43:26.038Z,50.38
2022-11-28T06:45:52.615Z,40.90
2022-11-28T06:48:20.069Z,39.53
2022-11-28T06:50:47.564Z,46.00
2022-11-28T06:53:14.626Z,52.05
2022-11-28T06:55:41.457Z,42.58
2022-11-28T06:58:08.021Z,54.20
2022-11-28T07:00:35.505Z,44.15
2022-11-28T07:03:02.263Z,45.57
2022-11-28T07:05:28.826Z,50.20
2022-11-28T07:07:55.363Z,51.55
2022-11-28T07:10:23.199Z,45.42
2022-11-28T07:12:59.368Z,49.95
2022-11-28T07:15:29.087Z,40.20
2022-11-28T07:17:55.657Z,32.75
2022-11-28T07:20:22.194Z,42.13
2022-11-28T07:22:48.868Z,44.72
2022-11-28T07:25:16.069Z,50.08
2022-11-28T07:27:42.920Z,56.80
2022-11-28T07:30:10.451Z,50.53
2022-11-28T07:32:40.723Z,43.22
2022-11-28T07:35:09.095Z,48.25
2022-11-28T07:37:36.291Z,43.17
2022-11-28T07:40:04.629Z,43.97
2022-11-28T07:42:31.185Z,33.67
2022-11-28T07:44:57.770Z,49.30
2022-11-28T07:47:24.677Z,38.35
2022-11-28T07:49:51.203Z,40.03
2022-11-28T07:52:17.714Z,40.57
2022-11-28T07:54:44.299Z,41.83
2022-11-28T07:57:12.706Z,43.90
2022-11-28T07:59:40.020Z,44.33
2022-11-28T08:02:07.305Z,41.45
2022-11-28T08:04:34.030Z,37.13
2022-11-28T08:07:00.914Z,42.67
2022-11-28T08:09:27.731Z,46.58
2022-11-28T08:11:54.330Z,41.40
2022-11-28T08:14:20.899Z,43.97
2022-11-28T08:16:47.546Z,41.80
2022-11-28T08:19:14.201Z,39.38
2022-11-28T08:21:40.797Z,41.08
2022-11-28T08:24:08.237Z,34.88
2022-11-28T08:26:35.609Z,23.15
2022-11-28T08:29:03.665Z,33.97
2022-11-28T08:31:36.577Z,31.48
2022-11-28T08:34:06.555Z,33.05
2022-11-28T08:36:33.655Z,31.33
2022-11-28T08:41:47.865Z,29.97
2022-11-28T08:44:14.386Z,31.55
2022-11-28T08:46:41.111Z,25.42
2022-11-28T08:49:07.849Z,27.13
2022-11-28T08:51:34.624Z,32.78
2022-11-28T08:54:01.215Z,27.50
2022-11-28T08:56:28.411Z,30.77
2022-11-28T08:58:55.611Z,24.30
2022-11-28T09:01:26.791Z,27.88
2022-11-28T09:03:55.467Z,25.50
2022-11-28T09:06:23.129Z,26.97
2022-11-28T09:08:50.803Z,28.55
2022-11-28T09:11:20.062Z,30.17
2022-11-28T09:13:46.911Z,23.23
2022-11-28T09:16:14.385Z,22.20
2022-11-28T09:18:41.082Z,24.93
2022-11-28T09:21:10.757Z,25.77
2022-11-28T09:23:39.083Z,26.63
2022-11-28T09:26:17.813Z,28.08
2022-11-28T09:28:45.002Z,27.73
2022-11-28T09:31:12.620Z,20.27
2022-11-28T09:33:39.275Z,25.50
2022-11-28T09:36:19.761Z,24.10
2022-11-28T09:38:46.697Z,23.30
2022-11-28T09:41:29.148Z,21.75
2022-11-28T09:44:20.944Z,23.07
2022-11-28T09:46:49.879Z,24.33
2022-11-28T09:49:24.142Z,26.55
2022-11-28T09:52:01.919Z,17.73
2022-11-28T09:54:44.685Z,23.92
2022-11-28T09:57:18.304Z,21.00
2022-11-28T09:59:46.320Z,26.77
2022-11-28T10:02:20.926Z,23.52
2022-11-28T10:05:01.665Z,16.15
2022-11-28T10:07:54.913Z,23.85
2022-11-28T10:10:21.947Z,25.70
2022-11-28T10:13:11.663Z,24.50
2022-11-28T10:15:41.066Z,25.00
2022-11-28T10:18:22.712Z,21.17
2022-11-28T10:20:55.075Z,19.60
2022-11-28T10:23:44.324Z,23.90
2022-11-28T10:26:26.184Z,23.48
2022-11-28T10:28:55.606Z,22.10
2022-11-28T10:31:42.859Z,24.10
2022-11-28T10:34:18.463Z,25.33
2022-11-28T10:36:57.348Z,30.13
2022-11-28T10:39:25.800Z,26.60
2022-11-28T10:42:14.189Z,25.33
2022-11-28T10:44:43.362Z,28.77
2022-11-28T10:47:32.910Z,19.25
2022-11-28T10:50:21.925Z,27.47
2022-11-28T10:53:16.809Z,23.92
2022-11-28T10:56:11.674Z,20.48
2022-11-28T10:59:09.791Z,23.27
2022-11-28T11:01:39.266Z,16.90
2022-11-28T11:04:06.389Z,18.00
2022-11-28T11:06:41.821Z,24.23
2022-11-28T11:09:14.744Z,20.02
2022-11-28T11:11:53.071Z,24.42
2022-11-28T11:14:34.934Z,18.70
2022-11-28T11:17:01.779Z,19.87
2022-11-28T11:19:36.743Z,19.30
2022-11-28T11:22:26.989Z,19.80
2022-11-28T11:25:20.473Z,20.65
2022-11-28T11:28:03.379Z,24.83
2022-11-28T11:30:31.323Z,16.43
2022-11-28T11:33:00.551Z,15.45
2022-11-28T11:35:35.895Z,16.17
2022-11-28T11:38:20.762Z,23.85
2022-11-28T11:40:51.361Z,19.27
2022-11-28T11:43:26.861Z,15.97
2022-11-28T11:46:16.294Z,21.65
2022-11-28T11:48:48.183Z,19.67
2022-11-28T11:51:32.653Z,18.13
2022-11-28T11:54:17.005Z,24.90
2022-11-28T11:56:47.315Z,21.77
2022-11-28T11:59:26.724Z,21.27
2022-11-28T12:01:59.279Z,21.60
2022-11-28T12:04:46.485Z,21.95
2022-11-28T12:07:26.412Z,21.13
2022-11-28T12:09:55.685Z,17.37
2022-11-28T12:12:29.279Z,24.52
2022-11-28T12:14:56.372Z,17.65
2022-11-28T12:17:48.895Z,20.50
2022-11-28T12:20:37.481Z,24.02
2022-11-28T12:23:27.502Z,19.80
2022-11-28T12:26:11.366Z,32.30
2022-11-28T12:28:47.552Z,28.83
2022-11-28T12:31:39.349Z,25.42
2022-11-28T12:34:33.013Z,26.23
2022-11-28T12:37:42.113Z,33.23
2022-11-28T12:40:38.254Z,28.30
2022-11-28T12:43:38.985Z,23.65
2022-11-28T12:46:23.960Z,28.85
2022-11-28T12:49:17.549Z,33.25
2022-11-28T12:52:14.305Z,34.00
2022-11-28T12:54:57.399Z,30.20
2022-11-28T12:57:30.637Z,38.15
2022-11-28T13:00:09.283Z,35.17
2022-11-28T13:03:10.989Z,28.83
2022-11-28T13:06:19.103Z,21.73
2022-11-28T13:09:03.412Z,25.90
2022-11-28T13:11:49.726Z,31.85
2022-11-28T13:14:36.360Z,30.25
2022-11-28T13:17:25.879Z,38.88
2022-11-28T13:20:00.546Z,33.90
2022-11-28T13:23:00.350Z,31.48
2022-11-28T13:25:33.092Z,30.02
2022-11-28T13:28:08.449Z,38.08
2022-11-28T13:30:45.799Z,35.70
2022-11-28T13:33:40.420Z,27.00
2022-11-28T13:38:34.969Z,35.53
2022-11-28T13:39:18.960Z,33.22
2022-11-28T13:45:17.146Z,25.30
2022-11-28T13:47:43.689Z,34.70
2022-11-28T13:50:25.349Z,38.10
2022-11-28T13:52:59.454Z,36.53
2022-11-28T13:55:46.741Z,34.65
2022-11-28T13:58:35.119Z,31.90
2022-11-28T14:01:17.829Z,33.23
2022-11-28T14:03:49.247Z,38.03
2022-11-28T14:06:22.909Z,32.80
2022-11-28T14:09:00.786Z,30.85
2022-11-28T14:12:07.762Z,37.85
2022-11-28T14:14:52.769Z,31.50
2022-11-28T14:17:40.247Z,36.42
2022-11-28T14:20:24.515Z,34.75
2022-11-28T14:22:57.019Z,32.65
2022-11-28T14:25:31.677Z,30.45
2022-11-28T14:28:14.782Z,40.30
2022-11-28T14:30:44.862Z,35.88
2022-11-28T14:33:23.464Z,32.60
2022-11-28T14:35:50.063Z,33.85
2022-11-28T14:38:32.182Z,33.45
2022-11-28T14:41:03.243Z,38.17
2022-11-28T14:43:31.105Z,31.27
2022-11-28T14:46:22.908Z,31.88
2022-11-28T14:48:58.871Z,29.90
2022-11-28T14:51:44.058Z,33.13
2022-11-28T14:54:43.815Z,35.83
2022-11-28T14:57:17.719Z,30.75
2022-11-28T14:59:44.787Z,34.03
2022-11-28T15:02:11.265Z,32.22
2022-11-28T15:04:49.396Z,38.83
2022-11-28T15:07:27.298Z,39.93
2022-11-28T15:10:07.512Z,38.63
2022-11-28T15:13:03.792Z,36.08
2022-11-28T15:15:31.980Z,35.45
2022-11-28T15:18:02.379Z,35.15
2022-11-28T15:20:35.463Z,39.43
2022-11-28T15:23:02.243Z,34.97
2022-11-28T15:25:35.660Z,33.50
2022-11-28T15:28:16.205Z,34.33
2022-11-28T15:30:48.824Z,29.52
2022-11-28T15:33:15.663Z,33.50
2022-11-28T15:35:56.951Z,32.08
2022-11-28T15:38:24.142Z,35.03
2022-11-28T15:40:52.839Z,37.45
2022-11-28T15:43:20.067Z,30.98
2022-11-28T15:45:58.507Z,33.60
2022-11-28T15:48:27.627Z,34.90
2022-11-28T15:50:54.625Z,41.90
2022-11-28T15:53:21.822Z,40.75
2022-11-28T15:56:07.216Z,34.13
2022-11-28T15:58:33.909Z,31.83
2022-11-28T16:01:04.896Z,39.70
2022-11-28T16:03:41.429Z,31.77
2022-11-28T16:06:08.486Z,33.85
2022-11-28T16:08:40.271Z,39.30
2022-11-28T16:11:10.024Z,37.73
2022-11-28T16:13:39.773Z,37.10
2022-11-28T16:16:12.922Z,38.35
2022-11-28T16:18:45.606Z,44.25
2022-11-28T16:21:14.001Z,41.20
2022-11-28T16:23:41.443Z,47.53
2022-11-28T16:26:22.031Z,49.70
2022-11-28T16:29:07.064Z,59.03
2022-11-28T16:31:34.805Z,50.38
2022-11-28T16:34:02.838Z,49.75
2022-11-28T16:36:37.431Z,50.23
2022-11-28T16:39:09.642Z,47.47
2022-11-28T16:41:37.781Z,54.92
2022-11-28T16:44:07.562Z,52.40
2022-11-28T16:46:39.969Z,51.42
2022-11-28T16:49:24.920Z,44.77
2022-11-28T16:52:13.575Z,50.50
2022-11-28T16:54:40.103Z,55.40
2022-11-28T16:57:16.780Z,54.40
2022-11-28T16:59:45.202Z,47.10
2022-11-28T17:02:17.746Z,51.67
2022-11-28T17:04:45.404Z,53.30
2022-11-28T17:07:14.665Z,55.38
2022-11-28T17:09:42.146Z,58.65
2022-11-28T17:12:22.718Z,58.63
2022-11-28T17:14:49.300Z,80.63
2022-11-28T17:17:18.108Z,71.60
2022-11-28T17:19:45.660Z,65.82
2022-11-28T17:22:15.803Z,60.17
2022-11-28T17:24:42.889Z,67.47
2022-11-28T17:27:12.624Z,59.40
2022-11-28T17:29:39.333Z,64.53
2022-11-28T17:32:06.151Z,46.55
2022-11-28T17:34:34.660Z,47.55
2022-11-28T17:37:02.067Z,45.60
2022-11-28T17:39:29.806Z,47.37
2022-11-28T17:41:57.470Z,44.70
2022-11-28T17:44:32.177Z,44.80
2022-11-28T17:47:00.634Z,47.72
2022-11-28T17:49:27.969Z,62.20
2022-11-28T17:51:55.980Z,45.67
2022-11-28T17:54:24.267Z,39.05
2022-11-28T17:56:52.007Z,51.22
2022-11-28T17:59:21.310Z,43.78
2022-11-28T18:01:48.221Z,40.90
2022-11-28T18:04:14.845Z,41.47
2022-11-28T18:06:47.859Z,44.75
2022-11-28T18:09:14.668Z,45.85
2022-11-28T18:11:42.304Z,43.00
2022-11-28T18:14:09.233Z,43.28
2022-11-28T18:16:36.263Z,44.77
2022-11-28T18:19:04.048Z,45.83
2022-11-28T18:21:30.940Z,46.90
2022-11-28T18:23:57.551Z,48.35
2022-11-28T18:26:26.172Z,52.85
2022-11-28T18:28:53.753Z,44.57
2022-11-28T18:31:25.417Z,52.25
2022-11-28T18:33:57.400Z,52.95
2022-11-28T18:36:28.567Z,53.45
2022-11-28T18:38:56.549Z,51.08
2022-11-28T18:41:23.590Z,56.47
2022-11-28T18:43:54.862Z,53.00
2022-11-28T18:46:21.494Z,53.35
2022-11-28T18:48:48.309Z,42.40
2022-11-28T18:51:24.954Z,45.67
2022-11-28T18:53:53.939Z,42.63
2022-11-28T18:56:21.174Z,45.35
2022-11-28T18:58:51.820Z,44.20
2022-11-28T19:01:28.686Z,43.58
2022-11-28T19:04:01.128Z,52.70
2022-11-28T19:06:28.065Z,39.60
2022-11-28T19:08:57.352Z,52.63
2022-11-28T19:11:24.399Z,50.28
2022-11-28T19:13:53.356Z,48.33
2022-11-28T19:16:25.608Z,44.47
2022-11-28T19:18:52.462Z,48.13
2022-11-28T19:21:21.899Z,40.92
2022-11-28T19:23:49.272Z,57.63
2022-11-28T19:26:21.999Z,46.03
2022-11-28T19:28:49.617Z,56.95
2022-11-28T19:31:27.125Z,52.77
2022-11-28T19:34:01.503Z,53.20
2022-11-28T19:36:30.402Z,56.83
2022-11-28T19:38:57.916Z,58.17
2022-11-28T19:41:27.570Z,58.10
2022-11-28T19:43:54.328Z,52.38
2022-11-28T19:46:20.902Z,46.05
2022-11-28T19:48:47.739Z,54.97
2022-11-28T19:51:14.330Z,56.28
2022-11-28T19:53:42.728Z,46.88
2022-11-28T19:56:14.939Z,52.17
2022-11-28T19:58:41.896Z,48.90
2022-11-28T20:01:14.342Z,45.85
2022-11-28T20:03:41.881Z,46.40
2022-11-28T20:06:16.327Z,42.80
2022-11-28T20:08:43.382Z,58.58
2022-11-28T20:11:14.721Z,57.15
2022-11-28T20:13:42.054Z,47.08
2022-11-28T20:16:11.221Z,48.75
2022-11-28T20:18:39.336Z,53.28
2022-11-28T20:21:17.720Z,45.85
2022-11-28T20:23:48.951Z,43.70
2022-11-28T20:26:17.673Z,40.25
2022-11-28T20:28:45.472Z,46.42
2022-11-28T20:31:20.763Z,41.78
2022-11-28T20:33:49.103Z,43.28
2022-11-28T20:36:18.431Z,42.47
2022-11-28T20:38:45.697Z,36.95
2022-11-28T20:41:14.123Z,43.90
2022-11-28T20:43:41.454Z,44.25
2022-11-28T20:46:14.810Z,41.28
2022-11-28T20:48:42.163Z,42.53
2022-11-28T20:51:10.611Z,41.45
2022-11-28T20:53:39.435Z,45.00
2022-11-28T20:56:08.568Z,36.30
2022-11-28T20:58:35.152Z,41.88
2022-11-28T21:01:01.869Z,34.40
2022-11-28T21:03:28.666Z,39.38
2022-11-28T21:06:00.651Z,42.65
2022-11-28T21:08:30.477Z,38.83
2022-11-28T21:10:57.460Z,37.00
2022-11-28T21:13:24.191Z,42.42
2022-11-28T21:15:52.017Z,39.80
2022-11-28T21:18:18.545Z,45.55
2022-11-28T21:20:46.585Z,42.85
2022-11-28T21:23:15.910Z,39.72
2022-11-28T21:25:43.612Z,39.42
2022-11-28T21:28:11.103Z,34.20
2022-11-28T21:30:44.066Z,43.53
2022-11-28T21:33:11.635Z,38.67
2022-11-28T21:35:39.270Z,42.95
2022-11-28T21:38:07.008Z,35.22
2022-11-28T21:40:33.867Z,39.92
2022-11-28T21:43:00.516Z,37.78
2022-11-28T21:45:27.622Z,37.63
2022-11-28T21:47:54.224Z,35.33
2022-11-28T21:50:20.769Z,38.95
2022-11-28T21:52:47.265Z,36.85
2022-11-28T21:55:13.751Z,35.75
2022-11-28T21:57:42.270Z,45.53
2022-11-28T22:00:20.747Z,42.95
2022-11-28T22:03:32.235Z,47.25
2022-11-28T22:05:43.340Z,41.58
2022-11-28T22:08:10.808Z,49.83
2022-11-28T22:10:37.818Z,42.55
2022-11-28T22:13:04.358Z,35.15
2022-11-28T22:15:30.869Z,41.67
2022-11-28T22:17:57.330Z,41.72
2022-11-28T22:20:23.878Z,46.72
2022-11-28T22:22:50.354Z,40.40
2022-11-28T22:25:17.022Z,36.72
2022-11-28T22:27:43.630Z,71.20
2022-11-28T22:30:10.609Z,257.67
2022-11-28T22:32:37.097Z,60.17
2022-11-28T22:35:03.818Z,61.83
2022-11-28T22:37:30.397Z,134.50
2022-11-28T22:39:56.901Z,42.75
2022-11-28T22:42:23.417Z,36.20
2022-11-28T22:44:49.927Z,40.58
2022-11-28T22:47:16.419Z,38.65
2022-11-28T22:49:42.934Z,43.05
2022-11-28T22:52:09.441Z,44.40
2022-11-28T22:54:35.992Z,50.78
2022-11-28T22:57:02.560Z,53.33
2022-11-28T22:59:30.173Z,61.13
2022-11-28T23:01:56.889Z,61.03
2022-11-28T23:04:23.525Z,62.10
2022-11-28T23:06:50.104Z,63.35
2022-11-28T23:09:16.855Z,61.15
2022-11-28T23:11:43.566Z,63.80
2022-11-28T23:14:13.244Z,53.53
2022-11-28T23:16:41.897Z,55.08
2022-11-28T23:19:12.488Z,59.20
2022-11-28T23:21:41.077Z,62.63
2022-11-28T23:24:11.944Z,98.03
2022-11-28T23:26:38.510Z,163.43
2022-11-28T23:29:05.777Z,142.27
2022-11-28T23:31:34.112Z,76.05
2022-11-28T23:34:01.283Z,76.85
2022-11-28T23:36:41.870Z,50.65
2022-11-28T23:39:22.589Z,43.80
2022-11-28T23:41:50.087Z,38.83
2022-11-28T23:44:18.263Z,52.88
2022-11-28T23:46:45.380Z,53.83
2022-11-28T23:49:12.646Z,34.17
2022-11-28T23:51:40.604Z,43.10
2022-11-28T23:54:08.515Z,30.98
2022-11-28T23:56:36.513Z,26.80
2022-11-28T23:59:06.052Z,22.17
